createdAt,value
2023-05-20T00:00:50.532Z,9.23
2023-05-20T00:03:20.363Z,9.47
2023-05-20T00:05:47.651Z,9.93
2023-05-20T00:08:14.996Z,9.57
2023-05-20T00:10:42.008Z,8.93
2023-05-20T00:13:08.987Z,8.63
2023-05-20T00:15:38.667Z,9.33
2023-05-20T00:18:05.892Z,8.60
2023-05-20T00:20:33.439Z,8.40
2023-05-20T00:23:00.553Z,9.50
2023-05-20T00:25:27.554Z,9.30
2023-05-20T00:27:55.573Z,9.10
2023-05-20T00:30:22.620Z,8.07
2023-05-20T00:32:49.840Z,8.37
2023-05-20T00:35:17.039Z,8.03
2023-05-20T00:37:44.001Z,8.13
2023-05-20T00:40:14.859Z,7.83
2023-05-20T00:42:43.951Z,7.40
2023-05-20T00:45:11.297Z,7.03
2023-05-20T00:47:39.551Z,8.03
2023-05-20T00:50:07.546Z,7.20
2023-05-20T00:52:35.401Z,7.30
2023-05-20T00:55:02.517Z,7.57
2023-05-20T00:57:29.893Z,6.50
2023-05-20T00:59:57.853Z,6.57
2023-05-20T01:02:25.148Z,6.93
2023-05-20T01:04:52.565Z,7.00
2023-05-20T01:07:20.195Z,6.40
2023-05-20T01:09:47.443Z,7.30
2023-05-20T01:12:30.783Z,7.53
2023-05-20T01:15:10.890Z,6.20
2023-05-20T01:17:41.710Z,5.97
2023-05-20T01:20:10.589Z,6.13
2023-05-20T01:22:58.027Z,6.07
2023-05-20T01:25:26.622Z,6.37
2023-05-20T01:27:56.063Z,6.33
2023-05-20T01:30:24.094Z,6.50
2023-05-20T01:32:55.673Z,6.73
2023-05-20T01:35:24.025Z,6.30
2023-05-20T01:37:53.180Z,6.33
2023-05-20T01:40:20.637Z,6.60
2023-05-20T01:42:53.348Z,6.60
2023-05-20T01:45:25.519Z,6.33
2023-05-20T01:47:52.875Z,6.53
2023-05-20T01:50:20.043Z,6.50
2023-05-20T01:52:47.085Z,6.20
2023-05-20T01:55:14.457Z,6.43
2023-05-20T01:57:41.520Z,5.97
2023-05-20T02:00:09.843Z,5.53
2023-05-20T02:02:37.079Z,6.13
2023-05-20T02:05:04.357Z,6.90
2023-05-20T02:07:31.380Z,6.73
2023-05-20T02:09:58.530Z,5.83
2023-05-20T02:12:26.802Z,6.87
2023-05-20T02:14:53.878Z,6.70
2023-05-20T02:17:20.946Z,5.67
2023-05-20T02:19:50.015Z,6.90
2023-05-20T02:22:17.988Z,6.73
2023-05-20T02:24:45.178Z,6.20
2023-05-20T02:27:12.159Z,6.30
2023-05-20T02:29:39.138Z,6.20
2023-05-20T02:32:06.529Z,6.63
2023-05-20T02:34:33.753Z,5.97
2023-05-20T02:37:01.520Z,7.20
2023-05-20T02:39:31.453Z,6.90
2023-05-20T02:41:58.412Z,6.00
2023-05-20T02:44:25.488Z,6.27
2023-05-20T02:46:52.515Z,6.60
2023-05-20T02:49:19.582Z,6.23
2023-05-20T02:51:46.590Z,6.87
2023-05-20T02:54:13.566Z,6.40
2023-05-20T02:56:40.647Z,5.77
2023-05-20T02:59:08.564Z,5.97
2023-05-20T03:01:36.111Z,5.33
2023-05-20T03:04:04.579Z,5.97
2023-05-20T03:06:34.404Z,5.53
2023-05-20T03:09:01.657Z,6.03
2023-05-20T03:11:28.705Z,5.57
2023-05-20T03:13:55.747Z,5.83
2023-05-20T03:16:23.018Z,6.57
2023-05-20T03:18:50.223Z,5.77
2023-05-20T03:21:17.298Z,5.30
2023-05-20T03:23:44.322Z,6.00
2023-05-20T03:26:11.834Z,6.70
2023-05-20T03:28:38.899Z,6.83
2023-05-20T03:31:06.659Z,6.33
2023-05-20T03:33:35.680Z,5.63
2023-05-20T03:36:02.692Z,6.27
2023-05-20T03:38:31.174Z,5.73
2023-05-20T03:40:59.156Z,5.63
2023-05-20T03:43:27.251Z,5.60
2023-05-20T03:45:54.218Z,5.47
2023-05-20T03:48:21.361Z,5.73
2023-05-20T03:50:50.234Z,5.33
2023-05-20T03:53:17.637Z,5.53
2023-05-20T03:55:44.626Z,5.90
2023-05-20T03:58:13.571Z,5.00
2023-05-20T04:00:40.534Z,5.73
2023-05-20T04:03:07.678Z,6.07
2023-05-20T04:05:36.550Z,5.63
2023-05-20T04:08:05.106Z,5.37
2023-05-20T04:10:33.559Z,5.47
2023-05-20T04:13:00.783Z,5.47
2023-05-20T04:15:29.998Z,5.13
2023-05-20T04:17:57.254Z,5.47
2023-05-20T04:20:24.591Z,5.23
2023-05-20T04:22:52.493Z,5.67
2023-05-20T04:25:19.797Z,4.97
2023-05-20T04:27:46.859Z,5.20
2023-05-20T04:30:14.241Z,5.23
2023-05-20T04:32:41.770Z,5.20
2023-05-20T04:35:12.252Z,5.13
2023-05-20T04:37:39.520Z,5.43
2023-05-20T04:40:07.044Z,5.73
2023-05-20T04:42:34.158Z,5.83
2023-05-20T04:45:02.153Z,5.27
2023-05-20T04:47:29.792Z,5.27
2023-05-20T04:49:59.668Z,5.27
2023-05-20T04:52:26.764Z,5.00
2023-05-20T04:54:54.171Z,5.77
2023-05-20T04:57:22.507Z,5.87
2023-05-20T04:59:49.648Z,5.03
2023-05-20T05:02:16.618Z,5.40
2023-05-20T05:04:43.625Z,6.67
2023-05-20T05:07:11.472Z,5.10
2023-05-20T05:09:38.432Z,5.70
2023-05-20T05:12:06.155Z,5.77
2023-05-20T05:14:33.149Z,5.30
2023-05-20T05:17:00.127Z,5.70
2023-05-20T05:19:27.266Z,5.70
2023-05-20T05:21:54.240Z,5.37
2023-05-20T05:24:21.248Z,5.87
2023-05-20T05:26:48.207Z,4.90
2023-05-20T05:29:15.214Z,5.00
2023-05-20T05:31:42.246Z,5.60
2023-05-20T05:34:10.207Z,4.60
2023-05-20T05:36:40.225Z,5.70
2023-05-20T05:39:07.338Z,5.80
2023-05-20T05:41:34.628Z,5.60
2023-05-20T05:44:01.810Z,4.93
2023-05-20T05:46:28.950Z,5.70
2023-05-20T05:48:56.251Z,5.10
2023-05-20T05:51:25.020Z,5.30
2023-05-20T05:53:52.075Z,6.70
2023-05-20T05:56:19.237Z,5.23
2023-05-20T05:58:48.429Z,4.87
2023-05-20T06:01:15.613Z,5.50
2023-05-20T06:03:42.897Z,5.47
2023-05-20T06:06:10.036Z,5.20
2023-05-20T06:08:37.137Z,5.47
2023-05-20T06:11:04.210Z,5.80
2023-05-20T06:13:31.228Z,5.33
2023-05-20T06:15:58.211Z,5.97
2023-05-20T06:18:25.270Z,5.60
2023-05-20T06:20:57.425Z,5.17
2023-05-20T06:23:24.618Z,4.83
2023-05-20T06:25:51.837Z,5.40
2023-05-20T06:28:21.024Z,5.27
2023-05-20T06:30:48.159Z,5.10
2023-05-20T06:33:15.164Z,4.33
2023-05-20T06:35:42.800Z,5.23
2023-05-20T06:38:09.793Z,4.63
2023-05-20T06:40:36.786Z,4.70
2023-05-20T06:43:03.743Z,4.97
2023-05-20T06:45:30.742Z,5.57
2023-05-20T06:47:57.806Z,5.00
2023-05-20T06:50:25.235Z,5.83
2023-05-20T06:52:52.202Z,5.03
2023-05-20T06:55:19.168Z,5.27
2023-05-20T06:57:46.379Z,4.77
2023-05-20T07:00:14.113Z,4.67
2023-05-20T07:02:41.817Z,5.07
2023-05-20T07:05:09.339Z,4.70
2023-05-20T07:07:37.074Z,5.10
2023-05-20T07:10:06.021Z,4.67
2023-05-20T07:12:36.068Z,4.53
2023-05-20T07:15:03.873Z,5.00
2023-05-20T07:17:30.947Z,4.53
2023-05-20T07:19:57.920Z,4.90
2023-05-20T07:22:25.027Z,4.60
2023-05-20T07:24:55.219Z,4.50
2023-05-20T07:27:22.576Z,4.90
2023-05-20T07:29:49.540Z,5.03
2023-05-20T07:32:16.898Z,4.30
2023-05-20T07:34:43.931Z,4.50
2023-05-20T07:37:12.832Z,4.47
2023-05-20T07:39:39.975Z,4.60
2023-05-20T07:42:06.950Z,4.50
2023-05-20T07:44:35.031Z,4.43
2023-05-20T07:47:02.217Z,4.30
2023-05-20T07:49:29.201Z,3.80
2023-05-20T07:51:56.203Z,4.30
2023-05-20T07:54:23.795Z,4.20
2023-05-20T07:56:51.018Z,4.03
2023-05-20T07:59:18.098Z,4.70
2023-05-20T08:01:45.138Z,5.17
2023-05-20T08:04:12.248Z,4.77
2023-05-20T08:06:40.005Z,5.30
2023-05-20T08:09:07.399Z,5.50
2023-05-20T08:11:34.371Z,4.90
2023-05-20T08:14:02.621Z,5.93
2023-05-20T08:16:29.693Z,6.40
2023-05-20T08:18:56.974Z,6.43
2023-05-20T08:21:24.056Z,6.17
2023-05-20T08:23:52.088Z,6.07
2023-05-20T08:26:19.136Z,5.77
2023-05-20T08:28:46.884Z,5.53
2023-05-20T08:31:14.034Z,6.97
2023-05-20T08:33:41.212Z,7.00
2023-05-20T08:36:08.508Z,6.40
2023-05-20T08:38:36.639Z,6.20
2023-05-20T08:41:04.172Z,6.80
2023-05-20T08:43:32.863Z,7.43
2023-05-20T08:46:00.060Z,7.33
2023-05-20T08:48:28.127Z,6.80
2023-05-20T08:50:58.121Z,6.43
2023-05-20T08:53:26.798Z,7.00
2023-05-20T08:56:01.024Z,6.07
2023-05-20T08:58:29.571Z,6.00
2023-05-20T09:00:56.780Z,7.13
2023-05-20T09:03:25.677Z,7.03
2023-05-20T09:05:54.278Z,6.77
2023-05-20T09:08:26.876Z,6.60
2023-05-20T09:10:54.717Z,7.07
2023-05-20T09:13:23.801Z,6.50
2023-05-20T09:15:51.460Z,7.07
2023-05-20T09:18:18.738Z,6.97
2023-05-20T09:20:48.174Z,6.33
2023-05-20T09:23:15.213Z,6.50
2023-05-20T09:25:42.251Z,7.03
2023-05-20T09:28:09.517Z,8.20
2023-05-20T09:30:36.757Z,7.57
2023-05-20T09:33:05.371Z,6.90
2023-05-20T09:35:37.581Z,6.97
2023-05-20T09:38:08.094Z,7.40
2023-05-20T09:40:38.007Z,7.43
2023-05-20T09:43:11.607Z,7.67
2023-05-20T09:45:39.011Z,7.37
2023-05-20T09:48:07.407Z,6.00
2023-05-20T09:50:36.738Z,7.00
2023-05-20T09:53:05.108Z,7.73
2023-05-20T09:55:33.096Z,8.17
2023-05-20T09:58:03.339Z,7.43
2023-05-20T10:00:30.824Z,7.33
2023-05-20T10:02:58.908Z,9.03
2023-05-20T10:05:33.514Z,8.57
2023-05-20T10:08:28.504Z,7.47
2023-05-20T10:11:08.249Z,7.63
2023-05-20T10:13:41.724Z,7.80
2023-05-20T10:16:30.755Z,7.60
2023-05-20T10:19:00.628Z,7.33
2023-05-20T10:21:27.732Z,6.97
2023-05-20T10:23:54.874Z,7.17
2023-05-20T10:26:21.998Z,7.03
2023-05-20T10:28:49.762Z,7.87
2023-05-20T10:31:24.283Z,7.80
2023-05-20T10:33:53.735Z,7.50
2023-05-20T10:36:27.927Z,7.67
2023-05-20T10:38:56.359Z,8.73
2023-05-20T10:41:28.562Z,7.17
2023-05-20T10:44:07.014Z,7.70
2023-05-20T10:46:51.479Z,7.00
2023-05-20T10:49:26.151Z,8.47
2023-05-20T10:51:54.442Z,8.30
2023-05-20T10:54:23.035Z,8.80
2023-05-20T10:56:54.230Z,9.47
2023-05-20T10:59:22.769Z,7.27
2023-05-20T11:01:50.046Z,7.80
2023-05-20T11:04:17.703Z,8.57
2023-05-20T11:06:56.191Z,7.10
2023-05-20T11:09:23.754Z,9.13
2023-05-20T11:11:55.530Z,8.07
2023-05-20T11:14:22.910Z,10.23
2023-05-20T11:16:54.410Z,8.60
2023-05-20T11:19:22.674Z,7.30
2023-05-20T11:21:49.725Z,8.67
2023-05-20T11:24:27.729Z,7.30
2023-05-20T11:26:56.179Z,7.40
2023-05-20T11:29:24.015Z,7.23
2023-05-20T11:31:53.771Z,7.27
2023-05-20T11:34:25.642Z,7.87
2023-05-20T11:36:58.774Z,7.27
2023-05-20T11:39:29.797Z,7.67
2023-05-20T11:41:57.612Z,6.47
2023-05-20T11:44:25.481Z,6.37
2023-05-20T11:46:59.258Z,6.60
2023-05-20T11:49:26.478Z,6.30
2023-05-20T11:51:54.502Z,6.20
2023-05-20T11:54:23.499Z,6.13
2023-05-20T11:56:50.847Z,6.23
2023-05-20T11:59:17.948Z,5.87
2023-05-20T12:01:46.041Z,5.93
2023-05-20T12:04:16.562Z,5.97
2023-05-20T12:06:44.272Z,6.40
2023-05-20T12:09:11.518Z,5.80
2023-05-20T12:11:44.657Z,6.27
2023-05-20T12:14:11.917Z,5.50
2023-05-20T12:16:39.221Z,6.07
2023-05-20T12:19:06.515Z,5.70
2023-05-20T12:21:33.579Z,6.17
2023-05-20T12:24:01.175Z,5.90
2023-05-20T12:26:29.616Z,6.03
2023-05-20T12:28:57.077Z,6.20
2023-05-20T12:31:24.815Z,6.13
2023-05-20T12:33:51.918Z,7.07
2023-05-20T12:36:19.816Z,6.63
2023-05-20T12:38:47.146Z,6.13
2023-05-20T12:41:14.313Z,6.97
2023-05-20T12:43:41.400Z,5.97
2023-05-20T12:46:08.675Z,6.60
2023-05-20T12:48:36.868Z,7.20
2023-05-20T12:51:04.107Z,6.07
2023-05-20T12:53:31.168Z,7.23
2023-05-20T12:55:58.305Z,7.10
2023-05-20T12:58:25.312Z,6.40
2023-05-20T13:00:52.336Z,6.50
2023-05-20T13:03:19.386Z,7.97
2023-05-20T13:05:46.489Z,6.00
2023-05-20T13:08:14.918Z,5.90
2023-05-20T13:10:42.213Z,6.50
2023-05-20T13:13:09.309Z,5.20
2023-05-20T13:15:36.874Z,7.10
2023-05-20T13:18:06.131Z,6.53
2023-05-20T13:20:33.333Z,5.13
2023-05-20T13:23:00.569Z,6.00
2023-05-20T13:25:28.104Z,6.23
2023-05-20T13:27:55.151Z,4.40
2023-05-20T13:30:22.288Z,4.70
2023-05-20T13:32:49.259Z,4.67
2023-05-20T13:35:17.083Z,4.93
2023-05-20T13:37:44.213Z,5.13
2023-05-20T13:40:12.037Z,4.63
2023-05-20T13:42:39.182Z,4.70
2023-05-20T13:45:06.627Z,4.40
2023-05-20T13:47:33.840Z,5.40
2023-05-20T13:50:03.082Z,6.07
2023-05-20T13:52:30.416Z,5.17
2023-05-20T13:54:57.431Z,4.77
2023-05-20T13:57:24.414Z,4.97
2023-05-20T13:59:51.427Z,4.90
2023-05-20T14:02:18.618Z,5.57
2023-05-20T14:04:47.157Z,4.47
2023-05-20T14:07:14.526Z,4.17
2023-05-20T14:09:41.611Z,4.23
2023-05-20T14:12:08.750Z,4.80
2023-05-20T14:14:35.797Z,4.43
2023-05-20T14:17:02.828Z,3.93
2023-05-20T14:19:30.188Z,4.33
2023-05-20T14:21:58.998Z,3.13
2023-05-20T14:24:26.007Z,5.13
2023-05-20T14:26:53.207Z,3.80
2023-05-20T14:29:20.189Z,4.27
2023-05-20T14:31:47.257Z,3.53
2023-05-20T14:34:14.278Z,4.23
2023-05-20T14:36:41.464Z,4.73
2023-05-20T14:39:08.440Z,4.93
2023-05-20T14:41:35.470Z,5.67
2023-05-20T14:44:02.794Z,4.60
2023-05-20T14:46:29.866Z,4.13
2023-05-20T14:48:56.914Z,5.00
2023-05-20T14:51:24.238Z,4.17
2023-05-20T14:53:51.420Z,4.50
2023-05-20T14:56:18.700Z,3.90
2023-05-20T14:58:45.746Z,4.40
2023-05-20T15:01:12.789Z,4.33
2023-05-20T15:03:39.812Z,3.70
2023-05-20T15:06:07.186Z,4.73
2023-05-20T15:08:34.211Z,4.37
2023-05-20T15:11:01.308Z,4.80
2023-05-20T15:13:28.257Z,5.17
2023-05-20T15:15:55.309Z,4.47
2023-05-20T15:18:22.491Z,3.77
2023-05-20T15:20:49.597Z,5.27
2023-05-20T15:23:17.874Z,5.40
2023-05-20T15:25:44.917Z,4.20
2023-05-20T15:28:11.931Z,4.43
2023-05-20T15:30:38.937Z,4.73
2023-05-20T15:33:06.080Z,5.07
2023-05-20T15:35:33.160Z,4.87
2023-05-20T15:38:00.196Z,4.23
2023-05-20T15:40:28.261Z,5.20
2023-05-20T15:42:55.378Z,4.57
2023-05-20T15:45:22.417Z,4.67
2023-05-20T15:47:49.535Z,3.93
2023-05-20T15:50:16.963Z,5.33
2023-05-20T15:52:44.164Z,4.57
2023-05-20T15:55:11.308Z,4.33
2023-05-20T15:57:39.333Z,4.70
2023-05-20T16:00:10.413Z,4.73
2023-05-20T16:02:38.438Z,5.53
2023-05-20T16:05:06.316Z,5.40
2023-05-20T16:07:33.278Z,4.87
2023-05-20T16:10:00.449Z,4.37
2023-05-20T16:12:27.494Z,4.70
2023-05-20T16:14:55.787Z,5.23
2023-05-20T16:17:22.963Z,6.03
2023-05-20T16:19:50.130Z,5.33
2023-05-20T16:22:18.684Z,5.50
2023-05-20T16:24:46.068Z,6.53
2023-05-20T16:27:13.031Z,6.97
2023-05-20T16:29:40.059Z,5.87
2023-05-20T16:32:07.511Z,5.20
2023-05-20T16:34:34.633Z,7.40
2023-05-20T16:37:02.004Z,5.57
2023-05-20T16:39:29.071Z,5.33
2023-05-20T16:41:56.029Z,6.33
2023-05-20T16:44:23.007Z,6.43
2023-05-20T16:46:51.902Z,5.73
2023-05-20T16:49:20.757Z,5.60
2023-05-20T16:51:47.810Z,5.80
2023-05-20T16:54:14.827Z,6.90
2023-05-20T16:56:42.099Z,7.00
2023-05-20T16:59:09.039Z,6.33
2023-05-20T17:01:37.009Z,5.37
2023-05-20T17:04:04.119Z,6.10
2023-05-20T17:06:35.100Z,5.27
2023-05-20T17:09:04.900Z,6.07
2023-05-20T17:11:33.482Z,5.20
2023-05-20T17:14:01.005Z,7.73
2023-05-20T17:16:28.107Z,7.10
2023-05-20T17:18:56.268Z,6.13
2023-05-20T17:21:23.339Z,5.03
2023-05-20T17:23:50.444Z,5.73
2023-05-20T17:26:17.635Z,5.50
2023-05-20T17:28:44.701Z,5.10
2023-05-20T17:31:11.958Z,7.37
2023-05-20T17:33:40.104Z,6.40
2023-05-20T17:36:07.504Z,6.77
2023-05-20T17:38:34.578Z,5.43
2023-05-20T17:41:01.669Z,5.43
2023-05-20T17:43:28.673Z,5.50
2023-05-20T17:45:55.855Z,4.60
2023-05-20T17:48:22.864Z,5.67
2023-05-20T17:50:49.869Z,4.93
2023-05-20T17:53:19.169Z,5.83
2023-05-20T17:55:47.785Z,5.80
2023-05-20T17:58:15.119Z,6.07
2023-05-20T18:00:42.418Z,4.63
2023-05-20T18:03:10.479Z,5.00
2023-05-20T18:05:37.830Z,5.90
2023-05-20T18:08:05.130Z,6.00
2023-05-20T18:10:32.159Z,5.57
2023-05-20T18:12:59.122Z,5.83
2023-05-20T18:15:26.161Z,5.73
2023-05-20T18:17:53.239Z,5.80
2023-05-20T18:20:20.674Z,4.90
2023-05-20T18:22:47.846Z,4.80
2023-05-20T18:25:15.594Z,5.97
2023-05-20T18:27:42.973Z,5.03
2023-05-20T18:30:10.730Z,4.40
2023-05-20T18:32:39.140Z,4.47
2023-05-20T18:35:06.933Z,4.93
2023-05-20T18:37:34.242Z,5.10
2023-05-20T18:40:01.509Z,4.93
2023-05-20T18:42:28.577Z,5.57
2023-05-20T18:44:55.784Z,5.47
2023-05-20T18:47:23.146Z,5.13
2023-05-20T18:49:50.191Z,5.20
2023-05-20T18:52:17.252Z,4.30
2023-05-20T18:54:44.204Z,5.80
2023-05-20T18:57:11.507Z,5.43
2023-05-20T18:59:38.592Z,5.20
2023-05-20T19:02:06.141Z,4.97
2023-05-20T19:04:33.274Z,4.93
2023-05-20T19:07:01.028Z,5.13
2023-05-20T19:09:27.991Z,5.23
2023-05-20T19:11:59.088Z,4.93
2023-05-20T19:14:26.441Z,5.23
2023-05-20T19:16:53.615Z,5.23
2023-05-20T19:19:20.753Z,4.83
2023-05-20T19:21:48.194Z,4.60
2023-05-20T19:24:17.716Z,4.47
2023-05-20T19:26:45.051Z,4.90
2023-05-20T19:29:12.077Z,9.33
2023-05-20T19:31:43.036Z,7.93
2023-05-20T19:34:10.394Z,5.20
2023-05-20T19:36:38.508Z,5.17
2023-05-20T19:39:07.925Z,4.93
2023-05-20T19:41:35.105Z,4.97
2023-05-20T19:44:02.270Z,5.07
2023-05-20T19:46:29.378Z,5.17
2023-05-20T19:48:57.848Z,4.53
2023-05-20T19:51:25.276Z,4.53
2023-05-20T19:53:53.111Z,4.77
2023-05-20T19:56:24.214Z,4.83
2023-05-20T19:58:51.671Z,4.27
2023-05-20T20:01:18.929Z,4.60
2023-05-20T20:03:46.192Z,5.93
2023-05-20T20:06:13.381Z,5.40
2023-05-20T20:08:40.389Z,5.43
2023-05-20T20:11:07.932Z,5.00
2023-05-20T20:13:35.769Z,5.07
2023-05-20T20:16:02.974Z,4.87
2023-05-20T20:18:30.066Z,5.50
2023-05-20T20:20:59.804Z,5.30
2023-05-20T20:23:27.413Z,5.47
2023-05-20T20:25:54.482Z,5.20
2023-05-20T20:28:21.849Z,5.27
2023-05-20T20:30:48.817Z,5.60
2023-05-20T20:33:16.209Z,5.40
2023-05-20T20:35:43.305Z,5.67
2023-05-20T20:38:10.518Z,6.43
2023-05-20T20:40:42.679Z,5.53
2023-05-20T20:43:11.477Z,5.03
2023-05-20T20:45:38.581Z,5.37
2023-05-20T20:48:08.143Z,6.17
2023-05-20T20:50:36.671Z,4.83
2023-05-20T20:53:03.720Z,6.10
2023-05-20T20:55:30.769Z,5.33
2023-05-20T20:57:58.400Z,6.40
2023-05-20T21:00:27.038Z,6.00
2023-05-20T21:02:54.138Z,5.53
2023-05-20T21:05:21.678Z,5.63
2023-05-20T21:07:52.653Z,5.40
2023-05-20T21:10:20.862Z,5.80
2023-05-20T21:12:47.895Z,5.63
2023-05-20T21:15:15.204Z,5.40
2023-05-20T21:17:42.426Z,6.97
2023-05-20T21:20:10.151Z,6.63
2023-05-20T21:22:37.157Z,5.40
2023-05-20T21:25:04.476Z,5.40
2023-05-20T21:27:32.494Z,5.67
2023-05-20T21:29:59.546Z,6.67
2023-05-20T21:32:26.881Z,6.00
2023-05-20T21:34:56.797Z,6.07
2023-05-20T21:37:25.212Z,6.30
2023-05-20T21:39:55.324Z,5.30
2023-05-20T21:42:23.559Z,5.30
2023-05-20T21:44:51.636Z,5.97
2023-05-20T21:47:21.858Z,6.63
2023-05-20T21:49:48.872Z,6.03
2023-05-20T21:52:19.338Z,5.93
2023-05-20T21:54:46.394Z,6.47
2023-05-20T21:57:16.847Z,5.90
2023-05-20T21:59:46.986Z,6.33
2023-05-20T22:02:13.975Z,5.90
2023-05-20T22:04:40.982Z,5.47
2023-05-20T22:07:09.246Z,6.20
2023-05-20T22:09:38.315Z,5.97
2023-05-20T22:12:07.912Z,6.00
2023-05-20T22:14:37.999Z,6.20
2023-05-20T22:17:08.378Z,5.67
2023-05-20T22:19:36.473Z,6.20
2023-05-20T22:22:06.652Z,6.53
2023-05-20T22:24:35.636Z,6.60
2023-05-20T22:27:04.039Z,6.57
2023-05-20T22:29:34.187Z,6.60
2023-05-20T22:32:02.390Z,6.90
2023-05-20T22:34:29.667Z,6.27
2023-05-20T22:36:58.217Z,7.03
2023-05-20T22:39:25.450Z,7.53
2023-05-20T22:41:52.435Z,7.33
2023-05-20T22:44:21.876Z,7.17
2023-05-20T22:46:49.954Z,7.23
2023-05-20T22:49:19.957Z,6.83
2023-05-20T22:51:52.872Z,7.40
2023-05-20T22:54:20.057Z,7.93
2023-05-20T22:56:56.812Z,8.10
2023-05-20T22:59:24.077Z,8.20
2023-05-20T23:01:51.223Z,7.83
2023-05-20T23:04:18.501Z,8.27
2023-05-20T23:06:45.766Z,8.27
2023-05-20T23:09:13.842Z,9.40
2023-05-20T23:11:42.918Z,9.80
2023-05-20T23:14:09.952Z,9.57
2023-05-20T23:16:40.281Z,9.10
2023-05-20T23:19:09.480Z,9.37
2023-05-20T23:21:37.538Z,8.60
2023-05-20T23:24:12.025Z,9.33
2023-05-20T23:26:41.071Z,9.57
2023-05-20T23:29:08.631Z,9.50
2023-05-20T23:31:36.144Z,9.07
2023-05-20T23:34:09.324Z,8.87
2023-05-20T23:36:37.418Z,9.27
2023-05-20T23:39:04.542Z,9.53
2023-05-20T23:41:32.879Z,10.37
2023-05-20T23:44:00.035Z,10.77
2023-05-20T23:46:27.117Z,10.67
2023-05-20T23:48:54.446Z,11.20
2023-05-20T23:51:24.582Z,12.60
2023-05-20T23:53:55.164Z,11.10
2023-05-20T23:56:23.191Z,10.30
2023-05-20T23:58:53.328Z,11.33
